• Join FlightAware (Why Join?)
  • Login
  • US Flag 
01:13AM EDT


 

Airport Tracker/Info


-or-


 

Live Flight TrackerFlight Track Log ✈ SWA16 ✈ 24-Apr-2013 ✈ KAMA - KLAS

Flight Track Log - Related Links

Times and Time Zones

All times are in EDT time to prevent confusion due to time zone crossing. See the SWA16 flight status page for this flight to view local times or setup timezone preferences in your user account.

Time Position Orientation Groundspeed Altitude Reporting Facility
EDT Latitude Longitude Course Direction KTS MPH feet Rate Location/Type
02:24PM 35.2017 -101.9531 269° West 255 293 11,200  Level Albuquerque Center
02:25PM 35.2011 -102.0653 270° West 321 369 14,000 3,120 Climbing Albuquerque Center
02:26PM 35.1994 -102.2044 269° West 339 390 17,700 3,240 Climbing Albuquerque Center
02:27PM 35.1983 -102.3236 269° West 348 400 20,700 2,580 Climbing Albuquerque Center
02:28PM 35.2000 -102.4441 270° West  Level FlightAware Approximate
02:28PM 35.1978 -102.4439 270° West 353 406 23,100  Level Albuquerque Center
02:29PM 35.1961 -102.5686 269° West 364 419 25,300 2,040 Climbing Albuquerque Center
02:31PM 35.1936 -102.8281 269° West 383 441 29,400 2,040 Climbing Albuquerque Center
02:32PM 35.1931 -102.9678 270° West 377 434 31,700 1,980 Climbing Albuquerque Center
02:33PM 35.1922 -103.0947 270° West 373 429 33,600 1,800 Climbing Albuquerque Center
02:34PM 35.1897 -103.2206 269° West 369 425 35,500 1,740 Climbing Albuquerque Center
02:35PM 35.1872 -103.3386 269° West 352 405 37,300 1,200 Climbing Albuquerque Center
02:36PM 35.1850 -103.4558 269° West 345 397 38,000 300 Climbing Albuquerque Center
02:37PM 35.1828 -103.5931 269° West 344 396 38,000  Level Albuquerque Center
02:38PM 35.1794 -103.7108 268° West 344 396 38,000  Level Albuquerque Center
02:40PM 35.1756 -103.8289 268° West 344 396 38,000  Level Albuquerque Center
02:41PM 35.1714 -103.9525 268° West 346 398 38,000  Level Albuquerque Center
02:42PM 35.1653 -104.0694 266° West 346 398 38,000  Level Albuquerque Center
02:43PM 35.1603 -104.1872 267° West 347 399 38,000  Level Albuquerque Center
02:44PM 35.1569 -104.3061 268° West 349 402 38,000  Level Albuquerque Center
02:45PM 35.1519 -104.4225 267° West 346 398 38,000  Level Albuquerque Center
02:46PM 35.1500 -104.5392 269° West 345 397 38,000  Level Albuquerque Center
02:47PM 35.1456 -104.6653 268° West 342 394 38,000  Level Albuquerque Center
02:48PM 35.1406 -104.7842 267° West 346 398 38,000  Level Albuquerque Center
02:49PM 35.1364 -104.9019 268° West 345 397 38,000  Level Albuquerque Center
02:50PM 35.1311 -105.0408 267° West 347 399 38,000  Level Albuquerque Center
02:51PM 35.1264 -105.1603 267° West 349 402 38,000  Level Albuquerque Center
02:52PM 35.1208 -105.2794 267° West 348 400 38,000  Level Albuquerque Center
02:53PM 35.1161 -105.3986 267° West 349 402 38,000  Level Albuquerque Center
02:54PM 35.1111 -105.5178 267° West 350 403 38,000  Level Albuquerque Center
02:55PM 35.1114 -105.6375 270° West 349 402 38,000  Level Albuquerque Center
02:56PM 35.1253 -105.7561 278° West 348 400 38,000  Level Albuquerque Center
02:57PM 35.1375 -105.8733 277° West 347 399 38,000  Level Albuquerque Center
02:58PM 35.1458 -105.9900 275° West 342 394 38,000  Level Albuquerque Center
02:59PM 35.1594 -106.1269 277° West 344 396 38,000  Level Albuquerque Center
03:00PM 35.1694 -106.2342 277° West 344 396 38,000  Level Albuquerque Center
03:01PM 35.1814 -106.3506 277° West 345 397 38,000  Level Albuquerque Center
03:02PM 35.1919 -106.4694 276° West 350 403 38,000  Level Albuquerque Center
03:03PM 35.2058 -106.6008 277° West 344 396 38,000  Level Albuquerque Center
03:04PM 35.2161 -106.7128 276° West 345 397 38,000  Level Albuquerque Center
03:05PM 35.2283 -106.8411 277° West 342 394 38,000  Level Albuquerque Center
03:06PM 35.2344 -106.9544 274° West 346 398 38,000  Level Albuquerque Center
03:07PM 35.2464 -107.0844 276° West 344 396 38,000  Level Albuquerque Center
03:08PM 35.2569 -107.2081 276° West 351 404 38,000  Level Albuquerque Center
03:09PM 35.2667 -107.3278 276° West 355 409 38,000  Level Albuquerque Center
03:10PM 35.2767 -107.4478 276° West 356 410 38,000  Level Albuquerque Center
03:11PM 35.2889 -107.5831 276° West 357 411 38,000  Level Albuquerque Center
03:13PM 35.2969 -107.6994 275° West 357 411 38,000  Level Albuquerque Center
03:14PM 35.3081 -107.8322 276° West 353 406 38,000  Level Albuquerque Center
03:15PM 35.3175 -107.9447 276° West 350 403 38,000  Level Albuquerque Center
03:16PM 35.3264 -108.0583 276° West 349 402 38,000  Level Albuquerque Center
03:17PM 35.3358 -108.1906 275° West 348 400 38,000  Level Albuquerque Center
03:18PM 35.3447 -108.3036 276° West 349 402 38,000  Level Albuquerque Center
03:19PM 35.3561 -108.4361 276° West 349 402 38,000  Level Albuquerque Center
03:20PM 35.3636 -108.5517 275° West 352 405 38,000  Level Albuquerque Center
03:21PM 35.3733 -108.6878 275° West 356 410 38,000  Level Albuquerque Center
03:22PM 35.3814 -108.8033 275° West 356 410 38,000  Level Albuquerque Center
03:23PM 35.3914 -108.9386 275° West 355 409 38,000  Level Albuquerque Center
03:24PM 35.4000 -109.0550 275° West 357 411 38,000  Level Albuquerque Center
03:25PM 35.4072 -109.1711 274° West 357 411 38,000  Level Albuquerque Center
03:26PM 35.4167 -109.3061 275° West 355 409 38,000  Level Albuquerque Center
03:27PM 35.4247 -109.4239 275° West 358 412 38,000  Level Albuquerque Center
03:28PM 35.4328 -109.5619 274° West 363 418 38,000  Level Albuquerque Center
03:29PM 35.4392 -109.6797 274° West 361 415 38,000  Level Albuquerque Center
03:30PM 35.4481 -109.8178 275° West 362 417 38,000  Level Albuquerque Center
03:31PM 35.4539 -109.9231 274° West 337 388 38,000  Level Albuquerque Center
03:32PM 35.4614 -110.0450 274° West 325 374 38,000  Level Albuquerque Center
03:33PM 35.4664 -110.1517 273° West 326 375 38,000 -60 Level Albuquerque Center
03:34PM 35.4731 -110.2756 274° West 327 376 37,900 -540 Descending Albuquerque Center
03:35PM 35.4789 -110.3819 274° West 326 375 37,000 -960 Descending Albuquerque Center
03:36PM 35.4856 -110.4906 274° West 330 380 36,000 -1,440 Descending Albuquerque Center
03:37PM 35.4922 -110.6219 274° West 340 391 34,100 -1,380 Descending Albuquerque Center
03:38PM 35.5000 -110.7358 275° West 347 399 33,200 -1,020 Descending Albuquerque Center
03:39PM 35.5075 -110.8700 274° West 351 404 32,100 -600 Descending Albuquerque Center
03:40PM 35.5144 -110.9825 274° West 349 402 32,000 -660 Descending Albuquerque Center
03:41PM 35.5208 -111.1128 273° West 344 396 30,800 -1,020 Descending Albuquerque Center
03:43PM 35.5258 -111.2242 273° West 342 394 30,000 -420 Descending Albuquerque Center
03:44PM 35.5339 -111.3522 274° West 339 390 30,000  Level Albuquerque Center
03:45PM 35.5386 -111.4508 273° West 341 392 30,000  Level Albuquerque Center
03:46PM 35.5450 -111.5886 273° West 341 392 30,000  Level Albuquerque Center
03:47PM 35.5503 -111.7033 273° West 339 390 30,000  Level Albuquerque Center
03:48PM 35.5569 -111.8178 274° West 339 390 30,000  Level Albuquerque Center
03:49PM 35.5608 -111.9308 272° West 336 387 30,000  Level Albuquerque Center
03:50PM 35.5669 -112.0544 274° West 356 410 30,000  Level Albuquerque Center
03:51PM 35.5731 -112.2053 273° West 370 426 30,000  Level Albuquerque Center
03:52PM 35.5786 -112.3314 273° West 372 428 30,000  Level Albuquerque Center
03:53PM 35.5839 -112.4586 273° West 375 432 30,000  Level Albuquerque Center
03:54PM 35.5903 -112.5917 273° West 389 448 30,000  Level Albuquerque Center
03:55PM 35.5961 -112.7308 273° West 408 470 30,000  Level Albuquerque Center
03:56PM 35.6017 -112.8972 272° West 411 473 30,000  Level Albuquerque Center
03:57PM 35.6081 -113.0344 273° West 410 472 30,000  Level Albuquerque Center
03:58PM 35.6125 -113.1750 272° West 415 478 30,000 -300 Level Albuquerque Center
03:59PM 35.6167 -113.3136 272° West 415 478 29,500 -1,500 Descending Albuquerque Center
04:00PM 35.6231 -113.4989 272° West 393 452 26,700 -2,280 Descending Los Angeles Center
04:01PM 35.6356 -113.6250 277° West 378 435 24,400 -2,040 Descending Los Angeles Center
04:02PM 35.6542 -113.7467 281° West 369 425 22,500 -2,160 Descending Los Angeles Center
04:03PM 35.6694 -113.8628 279° West 351 404 20,000 -2,220 Descending Los Angeles Center
04:04PM 35.6861 -113.9750 280° West 338 389 18,000 -2,100 Descending Los Angeles Center
04:06PM 35.7020 -114.1109 278° West  Level FlightAware Approximate
04:06PM 35.7178 -114.2092 278° West 340 391 13,600  Level Los Angeles Center
04:07PM 35.7294 -114.2769 282° West 345 397 12,500 -1,500 Descending Los Angeles Center
04:07PM 35.7372 -114.3456 278° West 336 387 12,100 -720 Descending Los Angeles Center
04:08PM 35.7533 -114.3831 298° West 332 382 11,800 -900 Descending Los Angeles Center
04:09PM 35.7961 -114.4303 318° Northwest 345 397 11,200 -1,140 Descending Los Angeles Center
04:09PM 35.8283 -114.4667 318° Northwest 344 396 10,700 -1,080 Descending Los Angeles Center
04:10PM 35.8664 -114.5058 320° Northwest 338 389 10,100 -720 Descending Los Angeles Center
04:10PM 35.8964 -114.5392 318° Northwest 319 367 10,000 -120 Descending Los Angeles Center
04:11PM 35.9297 -114.5742 320° Northwest 307 353 10,000 -120 Level Los Angeles Center
04:11PM 35.9583 -114.6033 320° Northwest 293 337 9,900 -600 Descending Los Angeles Center
04:12PM 35.9908 -114.6389 318° Northwest 292 336 9,400 -1,020 Descending Los Angeles Center
04:12PM 36.0189 -114.6708 317° Northwest 292 336 8,900 -1,260 Descending Los Angeles Center
04:13PM 36.0647 -114.7156 322° Northwest 290 334 8,100 -1,020 Descending Los Angeles Center
04:13PM 36.0742 -114.7456 291° West 280 322 7,900 -900 Descending Los Angeles Center
04:14PM 36.0736 -114.8036 269° West 277 319 7,200 -1,140 Descending Los Angeles Center
04:14PM 36.0742 -114.8333 271° West 254 292 6,800 -1,080 Descending Los Angeles Center
04:15PM 36.0744 -114.8897 270° West 261 300 6,100 -1,200 Descending Los Angeles Center
04:15PM 36.0736 -114.9189 268° West 249 287 5,600 -1,080 Descending Los Angeles Center
04:16PM 36.0742 -114.9719 271° West 251 289 5,000 -1,020 Descending Los Angeles Center
04:16PM 36.0747 -114.9931 272° West 204 235 4,600 -1,020 Descending Los Angeles Center
04:17PM 36.0739 -115.0347 269° West 213 245 4,000 -1,080 Descending Los Angeles Center
04:18PM 36.0736 -115.0897 270° West 183 211 2,700 -960 Descending Los Angeles Center
04:19PM 36.0747 -115.1408 272° West 138 159 2,100 -600 Descending Los Angeles Center
04:21PM 36.0667 -115.1500 270° West  Level FlightAware Approximate